Kezdőlap
METAR-TAF:

METAR-TAF

Repülőterek :

Warsaw Municipal Airport

Warsaw, Indiana, Amerikai Egyesült Államok

földrajzi szélesség: 41-16-28N, földrajzi hosszúság: 085-50-24W, magasság: 259 m

Jelenlegi meteorológiai megfigyelések

A jelentés 23 perccel ezelõtt készült, 09:55 UTC
Szélcsend
Hőmérséklet 15°C
Páratartalom 94%
Légköri nyomás 1020 hPa
Látótávolság: 4.8 km
Derült ég
Párásság

METAR: KASW 210955Z AUTO 00000KT 3SM BR CLR 15/14 A3013 RMK AO2 T01480145

Idő: 06:18 (10:18 UTC)


TAF: hiányzik

Meteorológiai megfigyelések és előrejelzések több, mint 4000 repülőtéren (METAR és TAF jelentéseket).

A térképen piros és sárga pontok jelzik az elérhető meteorológiai állomásokat.

Mozgassa az egeret a pont fölött, hogy megjelenjen az állomás neve.

Azután kattintson az időjárási megfigyelések és előrejelzések megtekintéséhez.

A térkép megváltoztatása: kattintson a fekete keresztel jelölt zöld gombra ráközelítéshez, a vonallal jelölt zöld gombra távolításhoz, vagy a zöld nyilakra a szomszédos térképek eléréséhez.


METAR-TAF: